Polkville, Mississippi
Current Conditions -  °F | °C
As of 10:54 PM on Wednesday 26 Nov 2014 (Local Time) from KJAN Reporting Station
Clear Clear  
Wind Chill: 11°   Ceiling: Unl
Heat Index: 11°   Visibility: 10mi
Dew Point:   Wind: 9mph
Humidity: 48%   Direction: 310°NW
Pressure: 30.23"   Gusts: NA
Location:  32.4637°N, 89.5548°W
Report Text: KJAN 270454Z 31008KT 10SM CLR 11/00 A3023 RMK AO2 SLP236 LAST AUGMENTED OBSERVATION UNTIL 1200Z T01060000
Loading
Personal Weather Stations






























Interactive Weather Map New forecast layout! Learn more

10-Day Weather Forecast

Advertisements
Track Severe Weather on mobile